Benasque, Spain
Current Conditions -  °F | °C
As of 8:30 PM on Sunday 23 Nov 2014 (Local Time) from LFBT Reporting Station
Clear Clear  
Wind Chill: 59°   Ceiling: Unl
Heat Index: 59°   Visibility: 6mi
Dew Point: 46°   Wind: 9mph
Humidity: 63%   Direction: 180°S
Pressure: 29.97"   Gusts: NA
Location:  42.61°N, 0.52°E
Report Text: LFBT 231930Z AUTO 18008KT 9999 NSC 15/08 Q1015
Loading
Personal Weather Stations






























Interactive Weather Map New forecast layout! Learn more

10-Day Weather Forecast

Advertisements
Track Severe Weather on mobile